Time;durP1;ratioP1;P1;durP2;ratioP2;P2;SDS_P1;SDS_P2;PMS_P1;PMS_P2;Temp;Humidity;BMP_temperature;BMP_pressure;BME280_temperature;BME280_humidity;BME280_pressure;Samples;Min_cycle;Max_cycle;Signal;HPM_P1;HPM_P2
2024/04/15 00:00:41;;;;;;;14.67;2.40;;;;;;;7.62;100.00;101799.81;5347486;26;20291;-73
2024/04/15 00:03:07;;;;;;;9.17;2.27;;;;;;;8.21;100.00;101934.44;5350032;26;20507;-73
2024/04/15 00:05:32;;;;;;;10.40;2.40;;;;;;;7.92;100.00;101890.16;5352238;26;20230;-73
2024/04/15 00:08:00;;;;;;;12.60;2.20;;;;;;;7.91;100.00;101869.78;5321611;26;21534;-73
2024/04/15 00:10:26;;;;;;;13.20;3.17;;;;;;;7.87;100.00;101886.28;5330141;26;22682;-73
2024/04/15 00:12:51;;;;;;;9.20;1.80;;;;;;;7.63;100.00;101821.00;5318143;26;20489;-73
2024/04/15 00:15:17;;;;;;;9.00;1.77;;;;;;;7.81;100.00;101898.44;5356508;26;20688;-73
2024/04/15 00:17:42;;;;;;;11.07;2.57;;;;;;;6.74;100.00;101778.31;5344872;26;20309;-72
2024/04/15 00:20:08;;;;;;;9.50;1.90;;;;;;;7.36;100.00;101856.66;5355969;26;20245;-73
2024/04/15 00:22:33;;;;;;;11.00;2.13;;;;;;;7.65;100.00;101871.59;5353481;26;20296;-73
2024/04/15 00:24:59;;;;;;;12.30;1.90;;;;;;;7.69;100.00;101864.94;5354072;26;20243;-73
2024/04/15 00:27:24;;;;;;;10.83;1.90;;;;;;;6.34;100.00;101742.25;5350061;26;20254;-73
2024/04/15 00:29:50;;;;;;;11.97;2.60;;;;;;;7.34;100.00;101849.78;5329434;26;20282;-73
2024/04/15 00:32:15;;;;;;;9.47;2.10;;;;;;;7.01;100.00;101780.94;5349064;26;20259;-73
2024/04/15 00:34:40;;;;;;;15.30;2.47;;;;;;;7.21;100.00;101784.31;5350919;26;20258;-73
2024/04/15 00:37:06;;;;;;;11.37;2.37;;;;;;;6.94;100.00;101779.03;5331572;26;20278;-73
2024/04/15 00:39:31;;;;;;;11.83;2.03;;;;;;;7.62;100.00;101850.53;5350784;26;20250;-73
2024/04/15 00:41:57;;;;;;;14.03;2.63;;;;;;;8.05;100.00;101897.78;5350928;26;20250;-73
2024/04/15 00:44:33;;;;;;;7.40;1.70;;;;;;;7.37;100.00;101777.41;5350578;26;20317;-73
2024/04/15 00:46:59;;;;;;;12.20;2.13;;;;;;;7.80;100.00;101869.19;5321581;26;20265;-73
2024/04/15 00:49:25;;;;;;;16.00;3.17;;;;;;;8.09;100.00;101887.59;5346674;26;24699;-72
2024/04/15 00:51:51;;;;;;;20.03;3.40;;;;;;;7.38;100.00;101761.25;5353181;26;20476;-72
2024/04/15 00:54:16;;;;;;;20.93;2.43;;;;;;;7.45;100.00;101783.66;5322196;26;20243;-73
2024/04/15 00:56:43;;;;;;;11.50;2.57;;;;;;;7.29;100.00;101740.84;5345945;26;20243;-73
2024/04/15 00:59:10;;;;;;;11.20;2.30;;;;;;;7.87;100.00;101812.34;5348861;26;20239;-73
2024/04/15 01:01:36;;;;;;;11.63;2.00;;;;;;;7.25;100.00;101700.25;5351421;26;20477;-73
2024/04/15 01:04:01;;;;;;;14.97;2.50;;;;;;;7.61;100.00;101744.75;5350532;26;20550;-72
2024/04/15 01:06:27;;;;;;;11.53;2.40;;;;;;;7.63;100.00;101788.13;5346788;26;20990;-72
2024/04/15 01:08:52;;;;;;;9.03;2.20;;;;;;;8.21;100.00;101850.75;5319252;26;20230;-73
2024/04/15 01:11:17;;;;;;;11.67;2.60;;;;;;;7.71;100.00;101822.91;5353897;26;21315;-72
2024/04/15 01:13:43;;;;;;;13.27;2.20;;;;;;;8.05;100.00;101848.84;5323280;26;20659;-73
2024/04/15 01:16:08;;;;;;;13.90;2.83;;;;;;;7.27;100.00;101710.78;5354233;26;20637;-73
2024/04/15 01:18:34;;;;;;;11.60;2.20;;;;;;;7.98;100.00;101831.75;5354218;26;20947;-72
2024/04/15 01:20:59;;;;;;;15.30;3.10;;;;;;;7.95;100.00;101771.47;5349065;26;20242;-72
2024/04/15 01:23:32;;;;;;;11.80;2.40;;;;;;;7.05;100.00;101640.09;5351745;26;20260;-73
2024/04/15 01:25:59;;;;;;;12.23;3.30;;;;;;;7.99;100.00;101783.53;5348903;26;20324;-72
2024/04/15 01:28:25;;;;;;;16.60;2.60;;;;;;;7.48;100.00;101723.78;5345892;26;20533;-73
2024/04/15 01:30:50;;;;;;;10.60;2.33;;;;;;;8.05;100.00;101806.09;5354945;26;20516;-73
2024/04/15 01:33:16;;;;;;;13.50;3.30;;;;;;;8.03;100.00;101766.16;5353337;26;20515;-74
2024/04/15 01:35:41;;;;;;;10.43;2.10;;;;;;;7.10;100.00;101656.47;5351943;26;20284;-73
2024/04/15 01:38:07;;;;;;;9.70;2.13;;;;;;;7.92;100.00;101810.00;5343263;26;20239;-73
2024/04/15 01:40:32;;;;;;;14.43;2.70;;;;;;;7.64;100.00;101731.06;5333254;26;20833;-73
2024/04/15 01:42:58;;;;;;;12.43;1.90;;;;;;;7.85;100.00;101789.44;5320599;26;20246;-72
2024/04/15 01:45:23;;;;;;;12.60;3.10;;;;;;;7.15;100.00;101691.53;5350655;26;20267;-73
2024/04/15 01:47:49;;;;;;;10.47;2.40;;;;;;;7.02;100.00;101669.75;5347887;26;20271;-73
2024/04/15 01:50:16;;;;;;;15.23;2.30;;;;;;;7.04;100.00;101640.25;5345700;26;20230;-73
2024/04/15 01:52:41;;;;;;;9.80;2.10;;;;;;;7.65;100.00;101722.88;5348226;26;20980;-72
2024/04/15 01:55:07;;;;;;;11.20;2.50;;;;;;;7.83;100.00;101746.03;5350791;26;20531;-73
2024/04/15 01:57:32;;;;;;;9.30;2.50;;;;;;;8.00;100.00;101774.50;5358409;26;20301;-72
2024/04/15 01:59:58;;;;;;;10.80;2.30;;;;;;;7.67;100.00;101725.41;5337168;26;20266;-72
2024/04/15 02:02:23;;;;;;;13.43;3.13;;;;;;;7.72;100.00;101776.50;5358310;26;20230;-72
2024/04/15 02:04:49;;;;;;;12.23;3.10;;;;;;;7.02;100.00;101638.56;5321308;26;20274;-72
2024/04/15 02:07:14;;;;;;;16.53;2.50;;;;;;;7.14;100.00;101660.50;5359094;26;20953;-73
2024/04/15 02:09:39;;;;;;;8.33;2.30;;;;;;;7.11;100.00;101652.81;5360825;26;20753;-72
2024/04/15 02:12:05;;;;;;;8.97;1.93;;;;;;;7.48;100.00;101705.91;5356156;26;20246;-73
2024/04/15 02:14:31;;;;;;;10.50;2.20;;;;;;;8.02;100.00;101752.97;5358715;26;20238;-72
2024/04/15 02:16:56;;;;;;;8.97;2.40;;;;;;;7.58;100.00;101689.81;5326990;26;20448;-72
2024/04/15 02:19:23;;;;;;;9.47;2.47;;;;;;;6.98;100.00;101615.06;5356067;26;20282;-72
2024/04/15 02:21:48;;;;;;;9.47;2.23;;;;;;;6.91;100.00;101587.31;5323674;26;20289;-72
2024/04/15 02:24:14;;;;;;;10.50;2.67;;;;;;;7.58;100.00;101702.31;5354255;26;20576;-73
2024/04/15 02:26:40;;;;;;;11.90;2.10;;;;;;;7.10;100.00;101618.28;5316947;26;20242;-72
2024/04/15 02:29:05;;;;;;;14.73;2.77;;;;;;;7.77;100.00;101731.47;5352111;26;20551;-73
2024/04/15 02:31:31;;;;;;;13.03;2.60;;;;;;;7.34;100.00;101663.78;5360750;26;20242;-73
2024/04/15 02:33:56;;;;;;;10.33;2.37;;;;;;;7.48;100.00;101708.59;5354440;26;20322;-73
2024/04/15 02:36:22;;;;;;;11.20;2.30;;;;;;;7.38;100.00;101659.00;5355590;26;20665;-73
2024/04/15 02:38:49;;;;;;;10.23;1.93;;;;;;;7.50;100.00;101684.44;5358450;26;20307;-73
2024/04/15 02:41:15;;;;;;;12.17;2.20;;;;;;;7.19;100.00;101652.84;5323987;26;20274;-72
2024/04/15 02:43:40;;;;;;;13.93;2.40;;;;;;;7.74;100.00;101698.91;5331938;26;20891;-72
2024/04/15 02:46:06;;;;;;;17.87;3.37;;;;;;;7.53;100.00;101659.25;5359147;26;20246;-72
2024/04/15 02:48:31;;;;;;;11.90;2.00;;;;;;;7.20;100.00;101625.22;5358721;26;20341;-72
2024/04/15 02:50:59;;;;;;;11.10;2.07;;;;;;;7.48;100.00;101662.38;5355271;26;20292;-72
2024/04/15 02:53:24;;;;;;;15.67;2.50;;;;;;;7.78;100.00;101684.22;5333092;26;20294;-73
2024/04/15 02:55:51;;;;;;;12.77;2.47;;;;;;;7.63;100.00;101676.81;5324428;26;20476;-72
2024/04/15 02:58:17;;;;;;;8.77;1.90;;;;;;;7.18;100.00;101563.16;5324785;26;20292;-72
2024/04/15 03:00:42;;;;;;;16.23;1.83;;;;;;;6.83;100.00;101541.91;5356888;26;20475;-72
2024/04/15 03:03:08;;;;;;;11.80;2.50;;;;;;;7.51;100.00;101595.31;5350508;26;20242;-72
2024/04/15 03:05:43;;;;;;;9.07;2.20;;;;;;;6.95;100.00;101514.00;5355530;26;20242;-73
2024/04/15 03:08:09;;;;;;;12.07;2.27;;;;;;;7.72;100.00;101663.50;5323152;26;20243;-72
2024/04/15 03:10:34;;;;;;;11.60;2.20;;;;;;;6.92;100.00;101523.16;5357419;26;21404;-73
2024/04/15 03:12:59;;;;;;;8.83;1.97;;;;;;;6.98;100.00;101527.84;5327477;26;20250;-72
2024/04/15 03:15:25;;;;;;;9.90;2.20;;;;;;;6.87;100.00;101522.78;5355153;26;20673;-72
2024/04/15 03:17:51;;;;;;;12.10;2.40;;;;;;;7.46;100.00;101651.00;5350746;26;20243;-72
2024/04/15 03:20:16;;;;;;;10.60;2.20;;;;;;;6.68;100.00;101512.34;5321657;26;20284;-72
2024/04/15 03:22:49;;;;;;;13.10;2.03;;;;;;;7.48;100.00;101635.69;5325658;26;20257;-72
2024/04/15 03:25:18;;;;;;;8.30;2.00;;;;;;;6.63;100.00;101520.81;5332910;26;20250;-72
2024/04/15 03:27:45;;;;;;;16.80;2.50;;;;;;;6.26;100.00;101518.38;5353551;26;20468;-72
2024/04/15 03:30:10;;;;;;;13.20;2.60;;;;;;;7.09;100.00;101596.13;5355101;26;20473;-72
2024/04/15 03:32:36;;;;;;;12.33;2.10;;;;;;;7.12;100.00;101585.13;5359635;26;20601;-72
2024/04/15 03:35:01;;;;;;;9.43;2.00;;;;;;;6.85;100.00;101542.59;5361065;26;20965;-72
2024/04/15 03:37:26;;;;;;;11.00;2.20;;;;;;;7.36;100.00;101608.44;5357291;26;20242;-72
2024/04/15 03:39:52;;;;;;;8.77;2.57;;;;;;;6.68;100.00;101496.34;5325755;26;20243;-72
2024/04/15 03:42:17;;;;;;;12.50;2.93;;;;;;;7.44;100.00;101584.47;5362972;26;20242;-73
2024/04/15 03:44:43;;;;;;;8.97;2.30;;;;;;;6.40;100.00;101490.34;5360478;26;20328;-72
2024/04/15 03:47:08;;;;;;;15.57;2.30;;;;;;;6.50;100.00;101473.22;5358523;26;20645;-72
2024/04/15 03:49:33;;;;;;;10.63;2.03;;;;;;;7.10;100.00;101570.28;5328721;26;20255;-72
2024/04/15 03:51:59;;;;;;;15.70;2.30;;;;;;;6.81;100.00;101520.75;5355117;26;20239;-72
2024/04/15 03:54:24;;;;;;;10.60;2.20;;;;;;;7.46;100.00;101570.94;5358477;26;20249;-72
2024/04/15 03:56:50;;;;;;;11.73;2.60;;;;;;;7.23;100.00;101571.53;5358826;26;20670;-72
2024/04/15 03:59:16;;;;;;;8.93;2.50;;;;;;;7.23;100.00;101554.66;5323505;26;20273;-72
2024/04/15 04:01:41;;;;;;;10.20;1.90;;;;;;;7.18;100.00;101520.47;5358304;26;20920;-72
2024/04/15 04:04:06;;;;;;;15.93;2.40;;;;;;;6.45;100.00;101408.06;5360306;26;20230;-72
2024/04/15 04:06:32;;;;;;;9.60;2.10;;;;;;;6.53;100.00;101416.94;5361387;26;20297;-72
2024/04/15 04:08:57;;;;;;;13.10;2.20;;;;;;;7.32;100.00;101531.50;5361801;26;20242;-72
2024/04/15 04:11:23;;;;;;;9.93;2.20;;;;;;;7.09;100.00;101512.56;5358434;26;20327;-72
2024/04/15 04:13:48;;;;;;;9.77;2.17;;;;;;;6.66;100.00;101407.72;5361698;26;20351;-73
2024/04/15 04:16:13;;;;;;;9.57;2.17;;;;;;;7.24;100.00;101510.97;5360654;26;20320;-72
2024/04/15 04:18:39;;;;;;;9.93;2.30;;;;;;;6.44;100.00;101398.41;5326671;26;20253;-72
2024/04/15 04:21:12;;;;;;;12.33;2.57;;;;;;;6.57;100.00;101431.66;5324970;26;20795;-72
2024/04/15 04:23:37;;;;;;;13.20;2.70;;;;;;;6.93;100.00;101460.81;5361336;26;20239;-72
2024/04/15 04:26:03;;;;;;;12.07;2.30;;;;;;;7.07;100.00;101495.91;5359437;26;20518;-72
2024/04/15 04:28:29;;;;;;;11.33;2.20;;;;;;;7.04;100.00;101498.88;5361450;26;20247;-72
2024/04/15 04:30:59;;;;;;;11.50;2.50;;;;;;;6.36;100.00;101371.72;5358979;26;20250;-72
2024/04/15 04:33:25;;;;;;;10.00;2.20;;;;;;;7.18;100.00;101468.94;5363535;26;20744;-72
2024/04/15 04:35:50;;;;;;;7.40;2.10;;;;;;;7.35;100.00;101502.69;5357887;26;20554;-72
2024/04/15 04:38:16;;;;;;;10.40;2.30;;;;;;;6.97;100.00;101448.84;5360305;26;20238;-72
2024/04/15 04:40:41;;;;;;;9.97;2.37;;;;;;;7.48;100.00;101512.91;5335222;26;20317;-72
2024/04/15 04:43:07;;;;;;;12.27;2.50;;;;;;;7.11;100.00;101441.22;5332721;26;20689;-72
2024/04/15 04:45:32;;;;;;;8.40;2.30;;;;;;;7.53;100.00;101485.72;5337780;26;20730;-72
2024/04/15 04:47:58;;;;;;;9.17;2.37;;;;;;;7.38;100.00;101478.34;5357290;26;20245;-72
2024/04/15 04:50:23;;;;;;;12.83;2.63;;;;;;;7.42;100.00;101479.69;5332133;26;20243;-72
2024/04/15 04:52:49;;;;;;;8.90;2.27;;;;;;;7.42;100.00;101497.53;5357454;26;20296;-72
2024/04/15 04:55:15;;;;;;;10.33;2.03;;;;;;;7.27;100.00;101441.28;5331235;26;20657;-72
2024/04/15 04:57:40;;;;;;;15.43;3.10;;;;;;;7.14;100.00;101403.53;5358712;26;20540;-72
2024/04/15 05:00:07;;;;;;;8.93;2.30;;;;;;;7.47;100.00;101460.53;5355328;26;20803;-72
2024/04/15 05:02:32;;;;;;;11.23;2.63;;;;;;;7.60;100.00;101479.56;5329488;26;21308;-72
2024/04/15 05:04:57;;;;;;;10.23;1.93;;;;;;;6.98;100.00;101364.34;5358126;26;20859;-72
2024/04/15 05:07:23;;;;;;;12.90;2.10;;;;;;;7.49;100.00;101458.50;5357045;26;20269;-73
2024/04/15 05:09:48;;;;;;;8.10;1.97;;;;;;;6.63;100.00;101333.38;5358613;26;20341;-72
2024/04/15 05:12:14;;;;;;;9.20;1.90;;;;;;;7.43;100.00;101438.66;5358910;26;20246;-72
2024/04/15 05:14:39;;;;;;;8.40;2.00;;;;;;;7.24;100.00;101436.28;5357883;26;20241;-72
2024/04/15 05:17:05;;;;;;;10.77;2.80;;;;;;;7.16;100.00;101388.22;5334006;26;20278;-72
2024/04/15 05:19:30;;;;;;;10.20;2.10;;;;;;;7.25;100.00;101403.25;5323254;26;20242;-72
2024/04/15 05:21:56;;;;;;;9.03;2.60;;;;;;;7.74;100.00;101450.53;5358231;26;20659;-73
2024/04/15 05:24:21;;;;;;;8.37;1.70;;;;;;;7.06;100.00;101350.16;5359530;26;20293;-72
2024/04/15 05:26:47;;;;;;;12.87;2.67;;;;;;;6.79;100.00;101290.75;5329032;26;20315;-72
2024/04/15 05:29:12;;;;;;;9.30;1.80;;;;;;;6.77;100.00;101338.09;5354960;26;20246;-72
2024/04/15 05:31:38;;;;;;;8.33;1.67;;;;;;;7.07;100.00;101354.53;5353680;26;20662;-72
2024/04/15 05:34:03;;;;;;;5.80;1.50;;;;;;;6.99;100.00;101300.13;5320910;26;20892;-72
2024/04/15 05:36:28;;;;;;;10.90;2.13;;;;;;;7.43;100.00;101366.59;5360419;26;20250;-72
2024/04/15 05:38:54;;;;;;;9.87;2.00;;;;;;;7.44;100.00;101354.91;5358888;26;20826;-72
2024/04/15 05:41:19;;;;;;;7.40;2.03;;;;;;;6.98;100.00;101287.81;5358020;26;20251;-72
2024/04/15 05:43:44;;;;;;;8.53;1.97;;;;;;;7.16;100.00;101330.34;5353366;26;20355;-72
2024/04/15 05:46:10;;;;;;;7.50;1.70;;;;;;;6.89;100.00;101266.66;5360661;26;20226;-72
2024/04/15 05:48:36;;;;;;;8.10;2.20;;;;;;;6.84;100.00;101229.78;5325359;26;20251;-72
2024/04/15 05:51:02;;;;;;;9.13;2.07;;;;;;;7.40;100.00;101358.88;5357683;26;20746;-72
2024/04/15 05:53:27;;;;;;;10.33;2.50;;;;;;;6.85;100.00;101260.78;5335875;26;20478;-72
2024/04/15 05:55:53;;;;;;;12.30;3.53;;;;;;;7.55;100.00;101356.44;5326048;26;20906;-72
2024/04/15 05:58:18;;;;;;;6.73;1.73;;;;;;;7.91;100.00;101370.25;5352123;26;20241;-72
2024/04/15 06:00:44;;;;;;;9.13;2.30;;;;;;;7.78;100.00;101339.72;5320633;26;20255;-72
2024/04/15 06:03:10;;;;;;;9.20;2.50;;;;;;;7.36;100.00;101272.16;5352813;26;20234;-72
2024/04/15 06:05:35;;;;;;;6.40;1.80;;;;;;;7.84;100.00;101294.50;5323280;26;20274;-72
2024/04/15 06:08:01;;;;;;;9.47;2.50;;;;;;;7.51;100.00;101264.31;5349275;26;20522;-72
2024/04/15 06:10:26;;;;;;;10.33;2.70;;;;;;;7.26;100.00;101188.78;5353753;26;20372;-72
2024/04/15 06:12:51;;;;;;;13.30;2.80;;;;;;;7.20;100.00;101184.09;5325941;26;20246;-72
2024/04/15 06:15:17;;;;;;;13.23;2.73;;;;;;;8.28;100.00;101338.66;5322885;26;20334;-72
2024/04/15 06:17:44;;;;;;;8.20;3.03;;;;;;;8.42;100.00;101337.09;5349177;26;20251;-72
2024/04/15 06:20:09;;;;;;;13.63;3.07;;;;;;;8.28;100.00;101335.97;5352204;26;20359;-72
2024/04/15 06:22:35;;;;;;;13.23;3.00;;;;;;;8.12;100.00;101344.84;5323762;26;20484;-72
2024/04/15 06:25:00;;;;;;;11.97;2.83;;;;;;;7.56;100.00;101235.28;5355980;26;20237;-72
2024/04/15 06:27:26;;;;;;;11.57;3.17;;;;;;;8.45;100.00;101334.94;5359722;26;20242;-72
2024/04/15 06:29:51;;;;;;;13.50;3.00;;;;;;;8.03;100.00;101297.78;5357704;26;20241;-72
2024/04/15 06:32:16;;;;;;;10.97;3.27;;;;;;;8.28;100.00;101303.91;5355127;26;20343;-72
2024/04/15 06:34:42;;;;;;;14.00;3.43;;;;;;;8.11;100.00;101293.25;5353776;26;20235;-73
2024/04/15 06:37:07;;;;;;;12.00;3.47;;;;;;;8.21;100.00;101271.66;5353732;26;20239;-72
2024/04/15 06:39:34;;;;;;;12.83;3.63;;;;;;;7.89;100.00;101222.69;5351167;26;21050;-73
2024/04/15 06:41:59;;;;;;;15.40;3.70;;;;;;;7.67;100.00;101181.53;5328764;26;20242;-72
2024/04/15 06:44:25;;;;;;;14.63;3.40;;;;;;;8.18;100.00;101207.88;5327447;26;20480;-73
2024/04/15 06:46:50;;;;;;;8.77;3.47;;;;;;;7.84;100.00;101158.28;5353420;26;20246;-72
2024/04/15 06:49:16;;;;;;;10.57;3.10;;;;;;;8.51;100.00;101288.81;5352102;26;20555;-72
2024/04/15 06:51:41;;;;;;;12.03;3.70;;;;;;;8.29;100.00;101255.59;5354506;26;20281;-72
2024/04/15 06:54:07;;;;;;;10.27;3.27;;;;;;;8.46;100.00;101266.25;5351601;26;20797;-72
2024/04/15 06:56:33;;;;;;;14.13;3.77;;;;;;;7.78;100.00;101152.78;5331075;26;20272;-72
2024/04/15 06:58:59;;;;;;;11.27;4.27;;;;;;;7.85;100.00;101165.28;5330521;26;20523;-72
2024/04/15 07:01:25;;;;;;;9.77;3.57;;;;;;;8.53;100.00;101253.84;5352992;26;20652;-72
2024/04/15 07:03:51;;;;;;;14.80;4.43;;;;;;;8.38;100.00;101200.28;5352091;26;20277;-72
2024/04/15 07:06:16;;;;;;;10.13;3.47;;;;;;;8.51;100.00;101202.41;5353846;26;20469;-72
2024/04/15 07:08:43;;;;;;;10.37;4.10;;;;;;;8.73;100.00;101211.44;5355304;26;20277;-72
2024/04/15 07:11:09;;;;;;;11.70;3.60;;;;;;;8.36;100.00;101124.75;5337066;26;20578;-72
2024/04/15 07:13:34;;;;;;;12.10;4.57;;;;;;;8.38;100.00;101107.56;5323172;26;20462;-72
2024/04/15 07:16:00;;;;;;;12.50;4.03;;;;;;;8.40;100.00;101098.56;5350000;26;22337;-72
2024/04/15 07:18:25;;;;;;;16.73;4.57;;;;;;;8.92;100.00;101188.75;5352291;26;20823;-72
2024/04/15 07:20:51;;;;;;;15.37;4.17;;;;;;;8.87;100.00;101183.09;5352386;26;20919;-72
2024/04/15 07:23:16;;;;;;;19.00;4.57;;;;;;;8.60;100.00;101132.66;5355024;26;20281;-72
2024/04/15 07:25:41;;;;;;;17.33;5.03;;;;;;;9.17;100.00;101198.25;5328733;26;20277;-72
2024/04/15 07:28:07;;;;;;;11.20;3.57;;;;;;;8.78;100.00;101110.13;5349551;26;20345;-72
2024/04/15 07:30:32;;;;;;;11.17;3.30;;;;;;;9.17;100.00;101159.94;5317277;26;20663;-72
2024/04/15 07:32:58;;;;;;;17.77;3.60;;;;;;;9.63;100.00;101192.78;5326000;26;20282;-72
2024/04/15 07:35:23;;;;;;;9.23;3.07;;;;;;;9.57;100.00;101166.72;5355055;26;20246;-72
2024/04/15 07:37:49;;;;;;;12.20;3.80;;;;;;;9.34;100.00;101112.41;5329840;26;20272;-73
2024/04/15 07:40:14;;;;;;;10.20;4.00;;;;;;;9.94;100.00;101167.63;5331931;26;20320;-73
2024/04/15 07:42:40;;;;;;;11.73;3.87;;;;;;;9.60;100.00;101136.88;5334601;26;20285;-73
2024/04/15 07:45:06;;;;;;;12.07;3.87;;;;;;;9.83;100.00;101126.06;5332135;26;20281;-73
2024/04/15 07:47:32;;;;;;;14.77;3.90;;;;;;;10.08;100.00;101117.72;5357091;26;20265;-73
2024/04/15 07:49:57;;;;;;;15.40;3.63;;;;;;;9.32;100.00;100994.84;5355865;26;20944;-73
2024/04/15 07:52:22;;;;;;;14.90;3.93;;;;;;;9.78;100.00;101042.78;5353464;26;20253;-73
2024/04/15 07:54:48;;;;;;;11.90;3.07;;;;;;;9.80;100.00;101048.75;5355728;26;20247;-72
2024/04/15 07:57:13;;;;;;;12.80;3.70;;;;;;;9.38;100.00;100942.41;5356845;26;20259;-72
2024/04/15 07:59:39;;;;;;;12.63;3.53;;;;;;;9.44;100.00;100947.00;5346540;26;20307;-72
2024/04/15 08:02:08;;;;;;;14.77;4.07;;;;;;;10.13;100.00;101046.44;5321523;26;20838;-73
2024/04/15 08:04:35;;;;;;;11.70;3.10;;;;;;;10.10;100.00;100995.06;5331148;26;20246;-73
2024/04/15 08:07:00;;;;;;;13.13;3.70;;;;;;;9.80;100.00;100986.31;5351707;26;21022;-72
2024/04/15 08:09:26;;;;;;;13.27;3.10;;;;;;;10.13;100.00;101006.25;5350934;26;22206;-74
2024/04/15 08:11:51;;;;;;;10.80;4.27;;;;;;;9.33;100.00;100885.91;5350657;26;20384;-72
2024/04/15 08:14:16;;;;;;;13.53;3.53;;;;;;;9.99;100.00;100979.50;5353571;26;20333;-72
2024/04/15 08:16:42;;;;;;;10.43;3.07;;;;;;;10.28;100.00;100991.97;5355031;26;20834;-74
2024/04/15 08:19:07;;;;;;;12.37;3.20;;;;;;;10.04;100.00;100942.22;5356511;26;20722;-73
2024/04/15 08:21:33;;;;;;;17.23;3.57;;;;;;;9.84;100.00;100908.06;5356100;26;20254;-73
2024/04/15 08:23:58;;;;;;;13.73;3.47;;;;;;;10.51;100.00;100981.03;5356430;26;20310;-73
2024/04/15 08:26:24;;;;;;;12.37;3.20;;;;;;;10.03;100.00;100873.56;5332024;26;20239;-73
2024/04/15 08:28:49;;;;;;;13.83;3.30;;;;;;;10.61;100.00;100934.03;5349089;26;20599;-72
2024/04/15 08:31:14;;;;;;;16.10;4.20;;;;;;;10.47;100.00;100877.81;5353397;26;20251;-72
2024/04/15 08:33:40;;;;;;;15.03;3.73;;;;;;;10.62;100.00;100890.09;5327934;26;20243;-72
2024/04/15 08:36:06;;;;;;;13.20;2.87;;;;;;;10.31;100.00;100811.94;5357526;26;20622;-73
2024/04/15 08:38:31;;;;;;;13.00;2.73;;;;;;;10.81;100.00;100863.56;5325355;26;20730;-73
2024/04/15 08:41:00;;;;;;;11.83;2.70;;;;;;;10.98;100.00;100856.81;5357927;26;20587;-73
2024/04/15 08:43:27;;;;;;;30.33;3.60;;;;;;;11.04;100.00;100828.34;5330163;26;20258;-73
2024/04/15 08:46:01;;;;;;;13.47;2.77;;;;;;;11.09;100.00;100828.59;5321571;26;20468;-73
2024/04/15 08:48:27;;;;;;;9.70;2.13;;;;;;;11.04;100.00;100809.56;5354997;26;20485;-73
2024/04/15 08:50:57;;;;;;;9.53;2.70;;;;;;;10.84;100.00;100753.16;5334148;26;21046;-73
2024/04/15 08:53:24;;;;;;;10.43;2.90;;;;;;;10.30;100.00;100665.50;5326563;26;21102;-73
2024/04/15 08:55:49;;;;;;;10.90;2.50;;;;;;;11.08;100.00;100739.19;5333426;26;20526;-73
2024/04/15 08:58:16;;;;;;;14.40;2.97;;;;;;;10.48;100.00;100648.88;5325312;26;20480;-73
2024/04/15 09:00:42;;;;;;;9.10;2.60;;;;;;;11.35;100.00;100724.94;5325000;26;20258;-73
2024/04/15 09:03:09;;;;;;;7.60;2.40;;;;;;;10.35;100.00;100577.28;5355026;26;20471;-73
2024/04/15 09:05:35;;;;;;;11.97;3.23;;;;;;;11.18;100.00;100671.66;5354170;26;20458;-74
2024/04/15 09:08:01;;;;;;;13.57;2.60;;;;;;;10.54;100.00;100546.97;5353314;26;20520;-73
2024/04/15 09:10:26;;;;;;;16.83;2.60;;;;;;;11.13;100.00;100654.50;5362318;26;20968;-73
2024/04/15 09:12:52;;;;;;;8.33;2.43;;;;;;;11.06;100.00;100646.47;5337337;26;20526;-73
2024/04/15 09:15:22;;;;;;;12.73;2.90;;;;;;;10.86;100.00;100598.16;5324007;26;20289;-74
2024/04/15 09:17:50;;;;;;;8.70;2.30;;;;;;;10.40;100.00;100526.53;5331954;26;20755;-73
2024/04/15 09:20:18;;;;;;;12.30;2.63;;;;;;;11.06;100.00;100603.53;5353712;26;20600;-73
2024/04/15 09:22:43;;;;;;;9.37;2.10;;;;;;;11.34;100.00;100584.50;5325087;26;20473;-74
2024/04/15 09:25:10;;;;;;;10.63;2.33;;;;;;;10.88;100.00;100494.16;5322111;26;23899;-73
2024/04/15 09:27:35;;;;;;;14.50;3.40;;;;;;;10.90;100.00;100470.59;5353607;26;20251;-73
2024/04/15 09:30:02;;;;;;;11.63;2.30;;;;;;;11.14;100.00;100500.47;5352466;26;20548;-73
2024/04/15 09:32:28;;;;;;;11.70;3.27;;;;;;;10.83;100.00;100464.44;5351669;26;20839;-73
2024/04/15 09:35:04;;;;;;;12.07;2.53;;;;;;;11.50;100.00;100577.84;5354123;26;20549;-74
2024/04/15 09:37:34;;;;;;;11.50;2.97;;;;;;;11.21;100.00;100531.63;5356277;26;20276;-73
2024/04/15 09:40:02;;;;;;;13.63;3.97;;;;;;;11.27;100.00;100538.84;5326479;26;20606;-73
2024/04/15 09:42:29;;;;;;;13.20;3.50;;;;;;;11.42;100.00;100535.91;5330120;26;20541;-73
2024/04/15 09:44:57;;;;;;;12.60;2.70;;;;;;;11.26;100.00;100498.78;5354808;26;20470;-73
2024/04/15 09:47:23;;;;;;;14.40;2.90;;;;;;;10.58;100.00;100403.38;5322943;26;20559;-74
2024/04/15 09:49:49;;;;;;;13.07;2.70;;;;;;;11.34;100.00;100482.47;5355747;26;20518;-73
2024/04/15 09:52:28;;;;;;;12.83;2.47;;;;;;;10.84;100.00;100361.44;5356071;26;20472;-74
2024/04/15 09:55:02;;;;;;;12.27;2.80;;;;;;;11.47;100.00;100481.56;5357245;26;20656;-74
2024/04/15 09:57:30;;;;;;;10.80;2.40;;;;;;;11.36;100.00;100464.25;5354821;26;20521;-73
2024/04/15 09:59:56;;;;;;;14.20;3.20;;;;;;;11.59;100.00;100462.91;5355401;26;20470;-73
2024/04/15 10:02:30;;;;;;;13.80;2.47;;;;;;;10.90;100.00;100362.44;5351285;26;20551;-73
2024/04/15 10:05:02;;;;;;;20.93;3.77;;;;;;;11.54;100.00;100437.53;5318787;26;20465;-73
2024/04/15 10:07:28;;;;;;;13.53;2.50;;;;;;;11.09;100.00;100319.41;5321087;26;20948;-73
2024/04/15 10:09:54;;;;;;;14.00;3.00;;;;;;;11.00;100.00;100314.53;5355910;26;20457;-73
2024/04/15 10:12:21;;;;;;;9.37;2.10;;;;;;;10.96;100.00;100318.66;5356996;26;20238;-73
2024/04/15 10:14:47;;;;;;;11.27;3.00;;;;;;;10.99;100.00;100304.81;5356276;26;20530;-73
2024/04/15 10:17:12;;;;;;;8.90;2.70;;;;;;;11.77;100.00;100396.69;5353897;26;20551;-73
2024/04/15 10:19:40;;;;;;;21.67;3.90;;;;;;;11.28;100.00;100290.81;5357802;26;20484;-73
2024/04/15 10:22:07;;;;;;;14.00;2.83;;;;;;;11.84;100.00;100359.00;5330914;26;20827;-73
2024/04/15 10:24:33;;;;;;;12.47;3.07;;;;;;;11.29;100.00;100246.00;5351023;26;20884;-73
2024/04/15 10:26:59;;;;;;;13.60;2.43;;;;;;;11.71;100.00;100311.56;5355292;26;20566;-73
2024/04/15 10:29:26;;;;;;;15.40;3.33;;;;;;;11.64;100.00;100350.28;5351853;26;20238;-73
2024/04/15 10:31:56;;;;;;;15.90;2.90;;;;;;;11.40;100.00;100253.34;5324960;26;21052;-73
2024/04/15 10:34:22;;;;;;;11.50;3.13;;;;;;;11.49;100.00;100267.34;5356634;26;20594;-73
2024/04/15 10:36:53;;;;;;;14.33;3.03;;;;;;;11.08;100.00;100215.78;5356071;26;20474;-73
2024/04/15 10:39:19;;;;;;;9.30;2.40;;;;;;;11.91;100.00;100334.78;5355640;26;20856;-73
2024/04/15 10:41:46;;;;;;;25.10;2.93;;;;;;;11.01;100.00;100201.59;5356838;26;21410;-73
2024/04/15 10:44:12;;;;;;;12.00;3.10;;;;;;;11.00;100.00;100199.13;5324206;26;20530;-73
2024/04/15 10:46:45;;;;;;;11.87;3.23;;;;;;;11.63;100.00;100311.00;5359237;26;20608;-73
2024/04/15 10:49:11;;;;;;;12.20;2.27;;;;;;;10.99;100.00;100182.22;5360419;26;20604;-73
2024/04/15 10:51:37;;;;;;;12.23;2.40;;;;;;;10.70;100.00;100150.63;5355898;26;20493;-73
2024/04/15 10:54:04;;;;;;;8.23;2.17;;;;;;;10.74;100.00;100157.22;5335552;26;20483;-73
2024/04/15 10:56:29;;;;;;;14.20;2.40;;;;;;;11.44;100.00;100269.84;5328678;26;20582;-73
2024/04/15 10:58:55;;;;;;;9.13;2.57;;;;;;;10.68;100.00;100131.25;5357245;26;20631;-73
2024/04/15 11:01:21;;;;;;;12.73;1.93;;;;;;;10.91;100.00;100144.91;5359030;26;20289;-73
2024/04/15 11:03:47;;;;;;;11.13;2.50;;;;;;;11.14;100.00;100176.53;5323521;26;20239;-73
2024/04/15 11:06:21;;;;;;;7.47;2.00;;;;;;;10.60;100.00;100087.56;5358772;26;20519;-72
2024/04/15 11:08:46;;;;;;;9.63;1.80;;;;;;;11.14;100.00;100176.53;5327328;26;20465;-73
2024/04/15 11:11:13;;;;;;;7.73;1.90;;;;;;;11.11;100.00;100158.19;5359049;26;20872;-73